sensor_id;sensor_type;location;lat;lon;timestamp;P1;durP1;ratioP1;P2;durP2;ratioP2
77705;SDS011;66874;45.274;5.880;2024-02-23T00:01:05;3.20;;;0.40;;
77705;SDS011;66874;45.274;5.880;2024-02-23T00:03:30;1.40;;;0.65;;
77705;SDS011;66874;45.274;5.880;2024-02-23T00:05:55;3.92;;;0.95;;
77705;SDS011;66874;45.274;5.880;2024-02-23T00:08:21;4.45;;;0.93;;
77705;SDS011;66874;45.274;5.880;2024-02-23T00:10:46;1.40;;;0.80;;
77705;SDS011;66874;45.274;5.880;2024-02-23T00:13:12;1.95;;;0.80;;
77705;SDS011;66874;45.274;5.880;2024-02-23T00:15:37;1.52;;;0.93;;
77705;SDS011;66874;45.274;5.880;2024-02-23T00:18:03;2.60;;;1.08;;
77705;SDS011;66874;45.274;5.880;2024-02-23T00:20:29;1.85;;;0.75;;
77705;SDS011;66874;45.274;5.880;2024-02-23T00:22:54;1.23;;;1.00;;
77705;SDS011;66874;45.274;5.880;2024-02-23T00:25:20;2.85;;;0.88;;
77705;SDS011;66874;45.274;5.880;2024-02-23T00:27:45;3.70;;;0.90;;
77705;SDS011;66874;45.274;5.880;2024-02-23T00:30:12;3.55;;;0.90;;
77705;SDS011;66874;45.274;5.880;2024-02-23T00:32:38;4.07;;;1.13;;
77705;SDS011;66874;45.274;5.880;2024-02-23T00:35:03;1.65;;;0.98;;
77705;SDS011;66874;45.274;5.880;2024-02-23T00:37:29;1.83;;;0.90;;
77705;SDS011;66874;45.274;5.880;2024-02-23T00:40:00;1.83;;;0.90;;
77705;SDS011;66874;45.274;5.880;2024-02-23T00:42:27;1.75;;;0.60;;
77705;SDS011;66874;45.274;5.880;2024-02-23T00:44:52;0.90;;;0.40;;
77705;SDS011;66874;45.274;5.880;2024-02-23T00:47:17;0.82;;;0.40;;
77705;SDS011;66874;45.274;5.880;2024-02-23T00:49:43;0.82;;;0.60;;
77705;SDS011;66874;45.274;5.880;2024-02-23T00:52:08;1.52;;;0.75;;
77705;SDS011;66874;45.274;5.880;2024-02-23T00:54:33;0.70;;;0.60;;
77705;SDS011;66874;45.274;5.880;2024-02-23T00:56:59;2.78;;;0.93;;
77705;SDS011;66874;45.274;5.880;2024-02-23T00:59:24;1.25;;;0.65;;
77705;SDS011;66874;45.274;5.880;2024-02-23T01:01:49;3.40;;;0.75;;
77705;SDS011;66874;45.274;5.880;2024-02-23T01:04:15;1.10;;;0.70;;
77705;SDS011;66874;45.274;5.880;2024-02-23T01:06:40;1.05;;;0.57;;
77705;SDS011;66874;45.274;5.880;2024-02-23T01:09:05;2.33;;;0.50;;
77705;SDS011;66874;45.274;5.880;2024-02-23T01:11:31;0.20;;;0.20;;
77705;SDS011;66874;45.274;5.880;2024-02-23T01:13:56;0.73;;;0.30;;
77705;SDS011;66874;45.274;5.880;2024-02-23T01:16:22;0.98;;;0.30;;
77705;SDS011;66874;45.274;5.880;2024-02-23T01:18:47;0.20;;;0.10;;
77705;SDS011;66874;45.274;5.880;2024-02-23T01:21:13;0.20;;;0.20;;
77705;SDS011;66874;45.274;5.880;2024-02-23T01:23:38;3.65;;;0.30;;
77705;SDS011;66874;45.274;5.880;2024-02-23T01:26:04;0.17;;;0.10;;
77705;SDS011;66874;45.274;5.880;2024-02-23T01:28:29;0.57;;;0.15;;
77705;SDS011;66874;45.274;5.880;2024-02-23T01:30:54;0.10;;;0.03;;
77705;SDS011;66874;45.274;5.880;2024-02-23T01:33:20;0.28;;;0.10;;
77705;SDS011;66874;45.274;5.880;2024-02-23T01:35:45;0.20;;;0.10;;
77705;SDS011;66874;45.274;5.880;2024-02-23T01:38:10;0.10;;;0.10;;
77705;SDS011;66874;45.274;5.880;2024-02-23T01:40:36;1.23;;;0.28;;
77705;SDS011;66874;45.274;5.880;2024-02-23T01:43:02;0.10;;;0.00;;
77705;SDS011;66874;45.274;5.880;2024-02-23T01:45:31;0.10;;;0.10;;
77705;SDS011;66874;45.274;5.880;2024-02-23T01:47:57;0.08;;;0.00;;
77705;SDS011;66874;45.274;5.880;2024-02-23T01:50:23;0.10;;;0.10;;
77705;SDS011;66874;45.274;5.880;2024-02-23T01:52:49;0.00;;;0.00;;
77705;SDS011;66874;45.274;5.880;2024-02-23T01:55:17;0.00;;;0.00;;
77705;SDS011;66874;45.274;5.880;2024-02-23T02:00:10;0.50;;;0.50;;
77705;SDS011;66874;45.274;5.880;2024-02-23T02:02:40;0.10;;;0.00;;
77705;SDS011;66874;45.274;5.880;2024-02-23T02:05:05;0.00;;;0.00;;
77705;SDS011;66874;45.274;5.880;2024-02-23T02:07:32;4.07;;;0.08;;
77705;SDS011;66874;45.274;5.880;2024-02-23T02:09:58;0.05;;;0.05;;
77705;SDS011;66874;45.274;5.880;2024-02-23T02:12:27;0.32;;;0.10;;
77705;SDS011;66874;45.274;5.880;2024-02-23T02:14:53;0.40;;;0.20;;
77705;SDS011;66874;45.274;5.880;2024-02-23T02:17:19;0.00;;;0.00;;
77705;SDS011;66874;45.274;5.880;2024-02-23T02:19:46;0.00;;;0.00;;
77705;SDS011;66874;45.274;5.880;2024-02-23T02:22:13;0.10;;;0.10;;
77705;SDS011;66874;45.274;5.880;2024-02-23T02:24:38;0.45;;;0.00;;
77705;SDS011;66874;45.274;5.880;2024-02-23T02:27:06;0.80;;;0.10;;
77705;SDS011;66874;45.274;5.880;2024-02-23T02:29:31;0.10;;;0.10;;
77705;SDS011;66874;45.274;5.880;2024-02-23T02:31:57;0.00;;;0.00;;
77705;SDS011;66874;45.274;5.880;2024-02-23T02:34:22;0.00;;;0.00;;
77705;SDS011;66874;45.274;5.880;2024-02-23T02:36:48;0.03;;;0.03;;
77705;SDS011;66874;45.274;5.880;2024-02-23T02:39:14;0.00;;;0.00;;
77705;SDS011;66874;45.274;5.880;2024-02-23T02:41:39;0.15;;;0.10;;
77705;SDS011;66874;45.274;5.880;2024-02-23T02:44:05;0.10;;;0.10;;
77705;SDS011;66874;45.274;5.880;2024-02-23T02:46:30;0.10;;;0.10;;
77705;SDS011;66874;45.274;5.880;2024-02-23T02:48:55;1.73;;;0.50;;
77705;SDS011;66874;45.274;5.880;2024-02-23T02:51:21;0.20;;;0.10;;
77705;SDS011;66874;45.274;5.880;2024-02-23T02:53:46;0.00;;;0.00;;
77705;SDS011;66874;45.274;5.880;2024-02-23T02:56:12;0.10;;;0.10;;
77705;SDS011;66874;45.274;5.880;2024-02-23T02:58:37;0.52;;;0.20;;
77705;SDS011;66874;45.274;5.880;2024-02-23T03:01:02;0.10;;;0.10;;
77705;SDS011;66874;45.274;5.880;2024-02-23T03:03:28;1.38;;;0.20;;
77705;SDS011;66874;45.274;5.880;2024-02-23T03:05:53;0.10;;;0.10;;
77705;SDS011;66874;45.274;5.880;2024-02-23T03:08:19;0.30;;;0.20;;
77705;SDS011;66874;45.274;5.880;2024-02-23T03:10:44;0.17;;;0.15;;
77705;SDS011;66874;45.274;5.880;2024-02-23T03:13:09;0.32;;;0.10;;
77705;SDS011;66874;45.274;5.880;2024-02-23T03:15:35;3.30;;;0.10;;
77705;SDS011;66874;45.274;5.880;2024-02-23T03:18:00;0.38;;;0.28;;
77705;SDS011;66874;45.274;5.880;2024-02-23T03:20:27;0.10;;;0.10;;
77705;SDS011;66874;45.274;5.880;2024-02-23T03:22:52;0.57;;;0.00;;
77705;SDS011;66874;45.274;5.880;2024-02-23T03:25:18;1.75;;;0.20;;
77705;SDS011;66874;45.274;5.880;2024-02-23T03:27:43;0.35;;;0.10;;
77705;SDS011;66874;45.274;5.880;2024-02-23T03:30:09;1.45;;;0.10;;
77705;SDS011;66874;45.274;5.880;2024-02-23T03:32:35;0.55;;;0.10;;
77705;SDS011;66874;45.274;5.880;2024-02-23T03:35:04;0.75;;;0.10;;
77705;SDS011;66874;45.274;5.880;2024-02-23T03:37:30;1.75;;;0.60;;
77705;SDS011;66874;45.274;5.880;2024-02-23T03:39:56;2.72;;;0.52;;
77705;SDS011;66874;45.274;5.880;2024-02-23T03:42:21;1.23;;;0.75;;
77705;SDS011;66874;45.274;5.880;2024-02-23T03:44:47;2.08;;;0.90;;
77705;SDS011;66874;45.274;5.880;2024-02-23T03:47:12;2.90;;;1.20;;
77705;SDS011;66874;45.274;5.880;2024-02-23T03:49:38;1.23;;;0.50;;
77705;SDS011;66874;45.274;5.880;2024-02-23T03:52:04;1.27;;;0.20;;
77705;SDS011;66874;45.274;5.880;2024-02-23T03:54:29;3.55;;;0.65;;
77705;SDS011;66874;45.274;5.880;2024-02-23T03:56:56;0.68;;;0.40;;
77705;SDS011;66874;45.274;5.880;2024-02-23T03:59:21;1.55;;;0.45;;
77705;SDS011;66874;45.274;5.880;2024-02-23T04:01:47;2.15;;;0.47;;
77705;SDS011;66874;45.274;5.880;2024-02-23T04:04:12;2.25;;;0.50;;
77705;SDS011;66874;45.274;5.880;2024-02-23T04:06:38;2.20;;;0.32;;
77705;SDS011;66874;45.274;5.880;2024-02-23T04:09:03;0.68;;;0.30;;
77705;SDS011;66874;45.274;5.880;2024-02-23T04:11:32;0.28;;;0.22;;
77705;SDS011;66874;45.274;5.880;2024-02-23T04:13:57;1.10;;;0.30;;
77705;SDS011;66874;45.274;5.880;2024-02-23T04:16:23;2.47;;;0.35;;
77705;SDS011;66874;45.274;5.880;2024-02-23T04:18:52;0.60;;;0.32;;
77705;SDS011;66874;45.274;5.880;2024-02-23T04:21:18;1.30;;;0.45;;
77705;SDS011;66874;45.274;5.880;2024-02-23T04:23:43;1.05;;;0.40;;
77705;SDS011;66874;45.274;5.880;2024-02-23T04:26:08;0.30;;;0.30;;
77705;SDS011;66874;45.274;5.880;2024-02-23T04:28:34;0.80;;;0.30;;
77705;SDS011;66874;45.274;5.880;2024-02-23T04:31:02;0.30;;;0.25;;
77705;SDS011;66874;45.274;5.880;2024-02-23T04:33:28;2.00;;;0.20;;
77705;SDS011;66874;45.274;5.880;2024-02-23T04:35:53;0.77;;;0.30;;
77705;SDS011;66874;45.274;5.880;2024-02-23T04:38:18;0.28;;;0.20;;
77705;SDS011;66874;45.274;5.880;2024-02-23T04:40:44;1.65;;;0.30;;
77705;SDS011;66874;45.274;5.880;2024-02-23T04:43:09;1.10;;;0.52;;
77705;SDS011;66874;45.274;5.880;2024-02-23T04:45:35;0.80;;;0.40;;
77705;SDS011;66874;45.274;5.880;2024-02-23T04:48:00;1.40;;;0.40;;
77705;SDS011;66874;45.274;5.880;2024-02-23T04:50:28;1.23;;;0.38;;
77705;SDS011;66874;45.274;5.880;2024-02-23T04:52:54;0.60;;;0.47;;
77705;SDS011;66874;45.274;5.880;2024-02-23T04:55:19;2.63;;;0.20;;
77705;SDS011;66874;45.274;5.880;2024-02-23T04:57:45;2.30;;;0.82;;
77705;SDS011;66874;45.274;5.880;2024-02-23T05:00:10;1.70;;;0.77;;
77705;SDS011;66874;45.274;5.880;2024-02-23T05:02:36;1.38;;;0.88;;
77705;SDS011;66874;45.274;5.880;2024-02-23T05:05:02;3.35;;;0.50;;
77705;SDS011;66874;45.274;5.880;2024-02-23T05:07:30;0.50;;;0.30;;
77705;SDS011;66874;45.274;5.880;2024-02-23T05:09:56;1.85;;;0.30;;
77705;SDS011;66874;45.274;5.880;2024-02-23T05:12:21;2.45;;;0.40;;
77705;SDS011;66874;45.274;5.880;2024-02-23T05:14:47;0.90;;;0.45;;
77705;SDS011;66874;45.274;5.880;2024-02-23T05:17:12;0.70;;;0.40;;
77705;SDS011;66874;45.274;5.880;2024-02-23T05:19:38;0.85;;;0.43;;
77705;SDS011;66874;45.274;5.880;2024-02-23T05:22:03;2.15;;;0.40;;
77705;SDS011;66874;45.274;5.880;2024-02-23T05:24:29;0.40;;;0.40;;
77705;SDS011;66874;45.274;5.880;2024-02-23T05:26:54;0.35;;;0.32;;
77705;SDS011;66874;45.274;5.880;2024-02-23T05:29:19;1.00;;;0.38;;
77705;SDS011;66874;45.274;5.880;2024-02-23T05:31:51;0.93;;;0.20;;
77705;SDS011;66874;45.274;5.880;2024-02-23T05:34:17;1.90;;;0.50;;
77705;SDS011;66874;45.274;5.880;2024-02-23T05:36:43;0.70;;;0.35;;
77705;SDS011;66874;45.274;5.880;2024-02-23T05:39:10;2.15;;;0.43;;
77705;SDS011;66874;45.274;5.880;2024-02-23T05:41:37;2.72;;;0.30;;
77705;SDS011;66874;45.274;5.880;2024-02-23T05:44:06;1.15;;;0.50;;
77705;SDS011;66874;45.274;5.880;2024-02-23T05:46:32;0.95;;;0.57;;
77705;SDS011;66874;45.274;5.880;2024-02-23T05:48:59;0.43;;;0.30;;
77705;SDS011;66874;45.274;5.880;2024-02-23T05:51:24;1.63;;;0.55;;
77705;SDS011;66874;45.274;5.880;2024-02-23T05:53:50;1.80;;;0.73;;
77705;SDS011;66874;45.274;5.880;2024-02-23T05:56:15;1.05;;;0.55;;
77705;SDS011;66874;45.274;5.880;2024-02-23T05:58:41;1.50;;;0.73;;
77705;SDS011;66874;45.274;5.880;2024-02-23T06:01:06;0.90;;;0.52;;
77705;SDS011;66874;45.274;5.880;2024-02-23T06:03:32;2.28;;;0.90;;
77705;SDS011;66874;45.274;5.880;2024-02-23T06:05:57;5.32;;;1.60;;
77705;SDS011;66874;45.274;5.880;2024-02-23T06:08:23;3.25;;;1.50;;
77705;SDS011;66874;45.274;5.880;2024-02-23T06:10:48;5.20;;;2.20;;
77705;SDS011;66874;45.274;5.880;2024-02-23T06:13:13;4.68;;;2.22;;
77705;SDS011;66874;45.274;5.880;2024-02-23T06:15:39;4.90;;;2.17;;
77705;SDS011;66874;45.274;5.880;2024-02-23T06:18:08;6.78;;;3.03;;
77705;SDS011;66874;45.274;5.880;2024-02-23T06:20:33;7.38;;;3.53;;
77705;SDS011;66874;45.274;5.880;2024-02-23T06:22:59;9.52;;;4.43;;
77705;SDS011;66874;45.274;5.880;2024-02-23T06:25:24;7.38;;;3.30;;
77705;SDS011;66874;45.274;5.880;2024-02-23T06:27:49;5.35;;;3.00;;
77705;SDS011;66874;45.274;5.880;2024-02-23T06:30:15;7.15;;;3.90;;
77705;SDS011;66874;45.274;5.880;2024-02-23T06:32:40;9.05;;;4.75;;
77705;SDS011;66874;45.274;5.880;2024-02-23T06:35:06;9.57;;;4.10;;
77705;SDS011;66874;45.274;5.880;2024-02-23T06:37:32;9.68;;;5.60;;
77705;SDS011;66874;45.274;5.880;2024-02-23T06:39:58;11.82;;;6.35;;
77705;SDS011;66874;45.274;5.880;2024-02-23T06:42:23;10.13;;;5.35;;
77705;SDS011;66874;45.274;5.880;2024-02-23T06:44:49;7.53;;;4.38;;
77705;SDS011;66874;45.274;5.880;2024-02-23T06:47:14;8.75;;;4.47;;
77705;SDS011;66874;45.274;5.880;2024-02-23T06:49:43;9.25;;;4.65;;
77705;SDS011;66874;45.274;5.880;2024-02-23T06:52:12;6.70;;;4.00;;
77705;SDS011;66874;45.274;5.880;2024-02-23T06:54:37;7.20;;;3.33;;
77705;SDS011;66874;45.274;5.880;2024-02-23T06:57:03;5.95;;;3.30;;
77705;SDS011;66874;45.274;5.880;2024-02-23T06:59:28;4.63;;;3.28;;
77705;SDS011;66874;45.274;5.880;2024-02-23T07:01:54;5.32;;;3.10;;
77705;SDS011;66874;45.274;5.880;2024-02-23T07:04:20;7.28;;;4.05;;
77705;SDS011;66874;45.274;5.880;2024-02-23T07:06:45;5.88;;;3.85;;
77705;SDS011;66874;45.274;5.880;2024-02-23T07:09:11;4.70;;;3.33;;
77705;SDS011;66874;45.274;5.880;2024-02-23T07:11:37;5.32;;;3.00;;
77705;SDS011;66874;45.274;5.880;2024-02-23T07:14:03;5.40;;;3.17;;
77705;SDS011;66874;45.274;5.880;2024-02-23T07:16:29;6.22;;;2.95;;
77705;SDS011;66874;45.274;5.880;2024-02-23T07:18:55;9.45;;;3.50;;
77705;SDS011;66874;45.274;5.880;2024-02-23T07:21:21;9.48;;;4.22;;
77705;SDS011;66874;45.274;5.880;2024-02-23T07:23:47;11.43;;;5.88;;
77705;SDS011;66874;45.274;5.880;2024-02-23T07:26:12;11.38;;;5.13;;
77705;SDS011;66874;45.274;5.880;2024-02-23T07:28:38;12.85;;;5.47;;
77705;SDS011;66874;45.274;5.880;2024-02-23T07:31:03;7.35;;;4.32;;
77705;SDS011;66874;45.274;5.880;2024-02-23T07:33:28;9.18;;;5.13;;
77705;SDS011;66874;45.274;5.880;2024-02-23T07:35:54;10.48;;;4.57;;
77705;SDS011;66874;45.274;5.880;2024-02-23T07:38:19;5.13;;;3.20;;
77705;SDS011;66874;45.274;5.880;2024-02-23T07:40:44;5.82;;;3.63;;
77705;SDS011;66874;45.274;5.880;2024-02-23T07:43:10;7.18;;;3.40;;
77705;SDS011;66874;45.274;5.880;2024-02-23T07:45:38;7.00;;;3.05;;
77705;SDS011;66874;45.274;5.880;2024-02-23T07:48:04;5.32;;;3.58;;
77705;SDS011;66874;45.274;5.880;2024-02-23T07:50:30;5.30;;;3.20;;
77705;SDS011;66874;45.274;5.880;2024-02-23T07:52:55;6.78;;;3.35;;
77705;SDS011;66874;45.274;5.880;2024-02-23T07:55:20;8.15;;;3.53;;
77705;SDS011;66874;45.274;5.880;2024-02-23T07:57:47;6.78;;;2.70;;
77705;SDS011;66874;45.274;5.880;2024-02-23T08:00:12;6.18;;;2.35;;
77705;SDS011;66874;45.274;5.880;2024-02-23T08:02:38;6.68;;;2.65;;
77705;SDS011;66874;45.274;5.880;2024-02-23T08:05:03;8.48;;;3.20;;
77705;SDS011;66874;45.274;5.880;2024-02-23T08:07:29;3.38;;;2.45;;
77705;SDS011;66874;45.274;5.880;2024-02-23T08:09:56;4.63;;;2.40;;
77705;SDS011;66874;45.274;5.880;2024-02-23T08:12:22;8.13;;;3.45;;
77705;SDS011;66874;45.274;5.880;2024-02-23T08:14:47;6.63;;;3.60;;
77705;SDS011;66874;45.274;5.880;2024-02-23T08:17:14;6.35;;;2.78;;
77705;SDS011;66874;45.274;5.880;2024-02-23T08:19:39;4.18;;;1.95;;
77705;SDS011;66874;45.274;5.880;2024-02-23T08:22:05;3.08;;;2.15;;
77705;SDS011;66874;45.274;5.880;2024-02-23T08:24:30;4.47;;;2.20;;
77705;SDS011;66874;45.274;5.880;2024-02-23T08:26:56;5.47;;;2.67;;
77705;SDS011;66874;45.274;5.880;2024-02-23T08:29:22;3.28;;;2.00;;
77705;SDS011;66874;45.274;5.880;2024-02-23T08:31:47;7.10;;;2.25;;
77705;SDS011;66874;45.274;5.880;2024-02-23T08:34:13;13.60;;;6.55;;
77705;SDS011;66874;45.274;5.880;2024-02-23T08:36:39;4.70;;;1.80;;
77705;SDS011;66874;45.274;5.880;2024-02-23T08:39:04;3.47;;;2.00;;
77705;SDS011;66874;45.274;5.880;2024-02-23T08:41:29;7.25;;;1.83;;
77705;SDS011;66874;45.274;5.880;2024-02-23T08:43:55;1.90;;;1.48;;
77705;SDS011;66874;45.274;5.880;2024-02-23T08:46:20;3.95;;;1.45;;
77705;SDS011;66874;45.274;5.880;2024-02-23T08:48:46;2.45;;;1.30;;
77705;SDS011;66874;45.274;5.880;2024-02-23T08:51:12;2.35;;;1.27;;
77705;SDS011;66874;45.274;5.880;2024-02-23T08:53:37;2.00;;;1.58;;
77705;SDS011;66874;45.274;5.880;2024-02-23T08:56:03;4.75;;;1.83;;
77705;SDS011;66874;45.274;5.880;2024-02-23T08:58:29;3.83;;;1.40;;
77705;SDS011;66874;45.274;5.880;2024-02-23T09:00:55;6.47;;;1.70;;
77705;SDS011;66874;45.274;5.880;2024-02-23T09:03:20;4.20;;;1.55;;
77705;SDS011;66874;45.274;5.880;2024-02-23T09:05:47;3.13;;;1.50;;
77705;SDS011;66874;45.274;5.880;2024-02-23T09:08:13;3.42;;;1.40;;
77705;SDS011;66874;45.274;5.880;2024-02-23T09:10:39;2.80;;;1.30;;
77705;SDS011;66874;45.274;5.880;2024-02-23T09:13:04;1.63;;;1.00;;
77705;SDS011;66874;45.274;5.880;2024-02-23T09:15:30;1.40;;;0.80;;
77705;SDS011;66874;45.274;5.880;2024-02-23T09:17:55;1.40;;;0.82;;
77705;SDS011;66874;45.274;5.880;2024-02-23T09:20:21;3.03;;;1.70;;
77705;SDS011;66874;45.274;5.880;2024-02-23T09:22:46;4.95;;;1.85;;
77705;SDS011;66874;45.274;5.880;2024-02-23T09:25:12;12.13;;;2.60;;
77705;SDS011;66874;45.274;5.880;2024-02-23T09:27:37;6.90;;;4.03;;
77705;SDS011;66874;45.274;5.880;2024-02-23T09:30:08;6.93;;;1.92;;
77705;SDS011;66874;45.274;5.880;2024-02-23T09:32:37;2.47;;;1.40;;
77705;SDS011;66874;45.274;5.880;2024-02-23T09:35:03;2.50;;;1.05;;
77705;SDS011;66874;45.274;5.880;2024-02-23T09:37:29;7.25;;;1.30;;
77705;SDS011;66874;45.274;5.880;2024-02-23T09:39:54;4.57;;;1.73;;
77705;SDS011;66874;45.274;5.880;2024-02-23T09:42:19;3.10;;;1.50;;
77705;SDS011;66874;45.274;5.880;2024-02-23T09:44:57;5.88;;;1.70;;
77705;SDS011;66874;45.274;5.880;2024-02-23T09:47:25;2.50;;;1.15;;
77705;SDS011;66874;45.274;5.880;2024-02-23T09:49:52;4.57;;;1.30;;
77705;SDS011;66874;45.274;5.880;2024-02-23T09:52:18;2.42;;;1.38;;
77705;SDS011;66874;45.274;5.880;2024-02-23T09:54:45;2.30;;;1.50;;
77705;SDS011;66874;45.274;5.880;2024-02-23T09:57:10;4.47;;;1.75;;
77705;SDS011;66874;45.274;5.880;2024-02-23T09:59:36;5.13;;;2.13;;
77705;SDS011;66874;45.274;5.880;2024-02-23T10:02:03;4.03;;;1.90;;
77705;SDS011;66874;45.274;5.880;2024-02-23T10:04:33;2.92;;;1.80;;
77705;SDS011;66874;45.274;5.880;2024-02-23T10:06:59;6.03;;;2.17;;
77705;SDS011;66874;45.274;5.880;2024-02-23T10:09:24;2.55;;;1.35;;
77705;SDS011;66874;45.274;5.880;2024-02-23T10:11:53;4.50;;;1.83;;
77705;SDS011;66874;45.274;5.880;2024-02-23T10:14:19;8.15;;;1.40;;
77705;SDS011;66874;45.274;5.880;2024-02-23T10:16:45;3.40;;;1.73;;
77705;SDS011;66874;45.274;5.880;2024-02-23T10:19:11;5.05;;;1.80;;
77705;SDS011;66874;45.274;5.880;2024-02-23T10:21:36;5.60;;;2.20;;
77705;SDS011;66874;45.274;5.880;2024-02-23T10:24:02;2.90;;;1.42;;
77705;SDS011;66874;45.274;5.880;2024-02-23T10:26:29;3.13;;;1.20;;
77705;SDS011;66874;45.274;5.880;2024-02-23T10:28:54;2.30;;;1.40;;
77705;SDS011;66874;45.274;5.880;2024-02-23T10:31:20;3.22;;;1.70;;
77705;SDS011;66874;45.274;5.880;2024-02-23T10:33:49;2.20;;;1.40;;
77705;SDS011;66874;45.274;5.880;2024-02-23T10:36:17;3.58;;;1.27;;
77705;SDS011;66874;45.274;5.880;2024-02-23T10:38:44;2.50;;;1.00;;
77705;SDS011;66874;45.274;5.880;2024-02-23T10:41:12;0.95;;;0.70;;
77705;SDS011;66874;45.274;5.880;2024-02-23T10:43:44;3.38;;;1.27;;
77705;SDS011;66874;45.274;5.880;2024-02-23T10:46:13;2.60;;;1.08;;
77705;SDS011;66874;45.274;5.880;2024-02-23T10:48:43;4.20;;;0.90;;
77705;SDS011;66874;45.274;5.880;2024-02-23T10:51:10;2.65;;;1.25;;
77705;SDS011;66874;45.274;5.880;2024-02-23T10:53:37;1.55;;;1.00;;
77705;SDS011;66874;45.274;5.880;2024-02-23T10:56:04;1.63;;;1.02;;
77705;SDS011;66874;45.274;5.880;2024-02-23T10:58:31;4.45;;;1.15;;
77705;SDS011;66874;45.274;5.880;2024-02-23T11:01:00;1.67;;;1.10;;
77705;SDS011;66874;45.274;5.880;2024-02-23T11:03:28;2.97;;;0.93;;
77705;SDS011;66874;45.274;5.880;2024-02-23T11:05:55;3.50;;;0.70;;
77705;SDS011;66874;45.274;5.880;2024-02-23T11:08:20;0.88;;;0.60;;
77705;SDS011;66874;45.274;5.880;2024-02-23T11:10:49;2.67;;;1.02;;
77705;SDS011;66874;45.274;5.880;2024-02-23T11:13:16;1.45;;;0.70;;
77705;SDS011;66874;45.274;5.880;2024-02-23T11:15:42;2.47;;;0.75;;
77705;SDS011;66874;45.274;5.880;2024-02-23T11:18:27;2.08;;;0.77;;
77705;SDS011;66874;45.274;5.880;2024-02-23T11:20:54;1.40;;;0.60;;
77705;SDS011;66874;45.274;5.880;2024-02-23T11:23:21;1.55;;;0.40;;
77705;SDS011;66874;45.274;5.880;2024-02-23T11:28:27;0.55;;;0.45;;
77705;SDS011;66874;45.274;5.880;2024-02-23T11:30:53;1.67;;;0.47;;
77705;SDS011;66874;45.274;5.880;2024-02-23T11:33:25;1.20;;;0.40;;
77705;SDS011;66874;45.274;5.880;2024-02-23T11:35:51;1.05;;;0.40;;
77705;SDS011;66874;45.274;5.880;2024-02-23T11:38:17;2.00;;;0.60;;
77705;SDS011;66874;45.274;5.880;2024-02-23T11:40:45;1.08;;;0.82;;
77705;SDS011;66874;45.274;5.880;2024-02-23T11:43:12;1.70;;;0.40;;
77705;SDS011;66874;45.274;5.880;2024-02-23T11:45:39;0.70;;;0.50;;
77705;SDS011;66874;45.274;5.880;2024-02-23T11:48:06;2.50;;;0.38;;
77705;SDS011;66874;45.274;5.880;2024-02-23T11:50:32;0.85;;;0.45;;
77705;SDS011;66874;45.274;5.880;2024-02-23T11:52:57;0.70;;;0.40;;
77705;SDS011;66874;45.274;5.880;2024-02-23T11:55:24;1.23;;;0.47;;
77705;SDS011;66874;45.274;5.880;2024-02-23T11:57:51;0.55;;;0.30;;
77705;SDS011;66874;45.274;5.880;2024-02-23T12:00:16;0.35;;;0.20;;
77705;SDS011;66874;45.274;5.880;2024-02-23T12:02:45;1.77;;;0.32;;
77705;SDS011;66874;45.274;5.880;2024-02-23T12:05:15;2.63;;;0.45;;
77705;SDS011;66874;45.274;5.880;2024-02-23T12:07:41;0.65;;;0.40;;
77705;SDS011;66874;45.274;5.880;2024-02-23T12:10:07;2.63;;;0.30;;
77705;SDS011;66874;45.274;5.880;2024-02-23T12:12:33;2.43;;;0.40;;
77705;SDS011;66874;45.274;5.880;2024-02-23T12:14:59;1.13;;;0.32;;
77705;SDS011;66874;45.274;5.880;2024-02-23T12:17:24;1.83;;;0.43;;
77705;SDS011;66874;45.274;5.880;2024-02-23T12:19:57;1.05;;;0.40;;
77705;SDS011;66874;45.274;5.880;2024-02-23T12:22:24;1.83;;;0.38;;
77705;SDS011;66874;45.274;5.880;2024-02-23T12:24:50;1.65;;;0.30;;
77705;SDS011;66874;45.274;5.880;2024-02-23T12:27:18;3.55;;;0.40;;
77705;SDS011;66874;45.274;5.880;2024-02-23T12:29:52;0.93;;;0.30;;
77705;SDS011;66874;45.274;5.880;2024-02-23T12:32:19;1.73;;;0.40;;
77705;SDS011;66874;45.274;5.880;2024-02-23T12:34:45;1.13;;;0.40;;
77705;SDS011;66874;45.274;5.880;2024-02-23T12:37:14;1.08;;;0.40;;
77705;SDS011;66874;45.274;5.880;2024-02-23T12:39:40;0.43;;;0.30;;
77705;SDS011;66874;45.274;5.880;2024-02-23T12:42:05;0.93;;;0.30;;
77705;SDS011;66874;45.274;5.880;2024-02-23T12:44:30;3.10;;;0.35;;
77705;SDS011;66874;45.274;5.880;2024-02-23T12:46:56;2.25;;;0.65;;
77705;SDS011;66874;45.274;5.880;2024-02-23T12:49:21;1.45;;;0.40;;
77705;SDS011;66874;45.274;5.880;2024-02-23T12:51:46;4.07;;;0.38;;
77705;SDS011;66874;45.274;5.880;2024-02-23T12:54:12;2.15;;;0.32;;
77705;SDS011;66874;45.274;5.880;2024-02-23T12:56:37;2.47;;;0.40;;
77705;SDS011;66874;45.274;5.880;2024-02-23T12:59:03;3.83;;;0.60;;
77705;SDS011;66874;45.274;5.880;2024-02-23T13:01:28;1.00;;;0.40;;
77705;SDS011;66874;45.274;5.880;2024-02-23T13:03:53;1.67;;;0.50;;
77705;SDS011;66874;45.274;5.880;2024-02-23T13:06:19;2.25;;;0.95;;
77705;SDS011;66874;45.274;5.880;2024-02-23T13:08:45;0.57;;;0.30;;
77705;SDS011;66874;45.274;5.880;2024-02-23T13:11:11;0.63;;;0.30;;
77705;SDS011;66874;45.274;5.880;2024-02-23T13:13:37;1.90;;;0.60;;
77705;SDS011;66874;45.274;5.880;2024-02-23T13:16:02;1.40;;;0.47;;
77705;SDS011;66874;45.274;5.880;2024-02-23T13:18:28;2.58;;;0.50;;
77705;SDS011;66874;45.274;5.880;2024-02-23T13:20:53;2.30;;;0.50;;
77705;SDS011;66874;45.274;5.880;2024-02-23T13:23:18;0.75;;;0.30;;
77705;SDS011;66874;45.274;5.880;2024-02-23T13:25:44;0.60;;;0.20;;
77705;SDS011;66874;45.274;5.880;2024-02-23T13:28:10;1.23;;;0.85;;
77705;SDS011;66874;45.274;5.880;2024-02-23T13:30:35;2.28;;;0.63;;
77705;SDS011;66874;45.274;5.880;2024-02-23T13:33:02;2.13;;;0.40;;
77705;SDS011;66874;45.274;5.880;2024-02-23T13:35:28;0.57;;;0.40;;
77705;SDS011;66874;45.274;5.880;2024-02-23T13:37:53;0.65;;;0.63;;
77705;SDS011;66874;45.274;5.880;2024-02-23T13:40:19;5.00;;;0.85;;
77705;SDS011;66874;45.274;5.880;2024-02-23T13:42:44;1.83;;;0.60;;
77705;SDS011;66874;45.274;5.880;2024-02-23T13:45:17;0.55;;;0.38;;
77705;SDS011;66874;45.274;5.880;2024-02-23T13:47:44;2.90;;;0.60;;
77705;SDS011;66874;45.274;5.880;2024-02-23T13:50:21;1.20;;;0.65;;
77705;SDS011;66874;45.274;5.880;2024-02-23T13:52:47;0.73;;;0.45;;
77705;SDS011;66874;45.274;5.880;2024-02-23T13:55:12;0.90;;;0.45;;
77705;SDS011;66874;45.274;5.880;2024-02-23T13:57:39;1.45;;;0.70;;
77705;SDS011;66874;45.274;5.880;2024-02-23T14:00:04;4.50;;;0.63;;
77705;SDS011;66874;45.274;5.880;2024-02-23T14:02:33;0.47;;;0.45;;
77705;SDS011;66874;45.274;5.880;2024-02-23T14:05:00;0.60;;;0.50;;
77705;SDS011;66874;45.274;5.880;2024-02-23T14:07:31;0.47;;;0.25;;
77705;SDS011;66874;45.274;5.880;2024-02-23T14:09:57;0.43;;;0.20;;
77705;SDS011;66874;45.274;5.880;2024-02-23T14:12:22;0.13;;;0.10;;
77705;SDS011;66874;45.274;5.880;2024-02-23T14:14:48;0.50;;;0.20;;
77705;SDS011;66874;45.274;5.880;2024-02-23T14:17:13;1.67;;;0.40;;
77705;SDS011;66874;45.274;5.880;2024-02-23T14:19:39;0.65;;;0.20;;
77705;SDS011;66874;45.274;5.880;2024-02-23T14:22:04;0.20;;;0.20;;
77705;SDS011;66874;45.274;5.880;2024-02-23T14:24:30;0.40;;;0.10;;
77705;SDS011;66874;45.274;5.880;2024-02-23T14:26:55;0.55;;;0.30;;
77705;SDS011;66874;45.274;5.880;2024-02-23T14:29:21;0.35;;;0.22;;
77705;SDS011;66874;45.274;5.880;2024-02-23T14:31:46;0.22;;;0.20;;
77705;SDS011;66874;45.274;5.880;2024-02-23T14:34:12;0.95;;;0.28;;
77705;SDS011;66874;45.274;5.880;2024-02-23T14:36:37;2.33;;;0.38;;
77705;SDS011;66874;45.274;5.880;2024-02-23T14:39:03;1.02;;;0.20;;
77705;SDS011;66874;45.274;5.880;2024-02-23T14:41:29;0.95;;;0.55;;
77705;SDS011;66874;45.274;5.880;2024-02-23T14:43:55;1.42;;;0.30;;
77705;SDS011;66874;45.274;5.880;2024-02-23T14:46:20;1.35;;;0.40;;